ADDS METAR Data INFO
IDs: Format: Raw Decoded Include TAF

Data at: 1012 UTC 22 May 2018

KSWO 220953Z AUTO 01003KT 9SM CLR 17/16 A3000 RMK AO2 SLP149 T01670156
KSWO 220853Z AUTO 00000KT 8SM CLR 16/15 A2999 RMK AO2 SLP144 T01610150 53000
KSWO 220753Z AUTO 00000KT 10SM CLR 17/16 A2998 RMK AO2 SLP139 T01670156
KSWO 220653Z AUTO 10003KT 10SM CLR 18/17 A2998 RMK AO2 SLP139 T01830167
KSWO 220553Z AUTO 00000KT 10SM CLR 18/17 A2999 RMK AO2 SLP144 T01830167 10272 20172 402890117 58002
KSWO 220453Z AUTO 00000KT 10SM CLR 18/16 A3000 RMK AO2 SLP148 T01780161
KSWO 220353Z AUTO 00000KT 10SM CLR 19/17 A3000 RMK AO2 SLP149 T01940167
KSWO 220253Z AUTO 13004KT 10SM CLR 23/17 A2999 RMK AO2 SLP146 T02280167 53011
KSWO 220153Z AUTO 15004KT 10SM CLR 23/16 A2997 RMK AO2 SLP140 T02280161
KSWO 220053Z AUTO 14006KT 10SM CLR 26/16 A2996 RMK AO2 SLP137 T02560161
KSWO 212353Z 16005KT 10SM FEW046 27/16 A2996 RMK AO2 SLP135 T02720161 10289 20256 56015
KSWO 212253Z 15007KT 10SM FEW046 28/16 A2997 RMK AO2 SLP139 T02830161
KSWO 212153Z VRB03KT 10SM CLR 28/16 A2998 RMK AO2 SLP142 T02830156
KSWO 212053Z 15007KT 10SM CLR 28/15 A3000 RMK AO2 SLP150 T02830150 58026
KSWO 211953Z 08004KT 10SM CLR 28/14 A3003 RMK AO2 SLP160 T02830139
KSWO 211853Z 12004KT 10SM CLR 27/14 A3006 RMK AO2 SLP168 T02670144
KSWO 211753Z 00000KT 10SM CLR 26/14 A3008 RMK AO2 SLP177 T02560144 10261 20122 58008
KSWO 211653Z VRB03KT 10SM CLR 24/14 A3010 RMK AO2 SLP183 T02440144
KSWO 211553Z 11005KT 10SM CLR 23/14 A3011 RMK AO2 SLP188 T02330139
KSWO 211453Z 06006KT 10SM CLR 21/14 A3011 RMK AO2 SLP186 T02110144 51009
KSWO 211353Z 06005KT 10SM CLR 19/15 A3010 RMK AO2 SLP185 T01890150
KSWO 211253Z 00000KT 6SM BR CLR 16/15 A3009 RMK AO2 SLP181 T01610150
KSWO 211222Z AUTO 00000KT 3SM BR FEW002 14/14 A3008 RMK AO2 T01440144
KSWO 211214Z AUTO 00000KT 2SM BR SCT002 14/13 A3008 RMK AO2 T01390133
KSWO 211211Z AUTO 00000KT 1SM BR VV002 13/13 A3008 RMK AO2 T01330128
KSWO 211203Z AUTO 00000KT 1/4SM FG VV002 13/12 A3008 RMK AO2 T01280122
KSWO 211153Z AUTO 33003KT 1/4SM FG VV001 12/12 A3008 RMK AO2 SLP178 70008 T01220117 10156 20117 53003
KSWO 211053Z AUTO 27003KT 1/4SM FG VV001 12/11 A3007 RMK AO2 SLP176 T01220111
KSWO 210958Z AUTO 00000KT 1/4SM FG VV004 12/12 A3007 RMK AO2 T01220122
KSWO 210953Z AUTO 00000KT 1/2SM FG CLR 13/12 A3007 RMK AO2 SLP175 T01280122
KSWO 210942Z AUTO 01003KT 1/2SM FG CLR 13/12 A3007 RMK AO2 T01330122
KSWO 210924Z AUTO 00000KT 1 3/4SM BR CLR 13/13 A3007 RMK AO2 VIS 3/4V4 T01330128
KSWO 210853Z AUTO 00000KT 5SM BR CLR 14/13 A3006 RMK AO2 SLP172 T01390128 55002
KSWO 210753Z AUTO 01003KT 5SM BR CLR 14/13 A3006 RMK AO2 SLP173 T01390133
KSWO 210653Z AUTO 01004KT 7SM CLR 14/13 A3007 RMK AO2 SLP175 T01440133
KSWO 210553Z AUTO 01003KT 8SM CLR 16/14 A3007 RMK AO2 SLP175 T01560144 10222 20156 402390156 51009
KSWO 210453Z AUTO 35004KT 7SM CLR 16/14 A3007 RMK AO2 SLP176 T01560144
KSWO 210353Z AUTO 02003KT 8SM CLR 16/14 A3006 RMK AO2 SLP172 T01560144
KSWO 210253Z AUTO 35004KT 10SM CLR 16/15 A3004 RMK AO2 SLP165 T01610150 53003
KSWO 210153Z AUTO 01005KT 10SM CLR 17/15 A3004 RMK AO2 SLP165 T01720150
KSWO 210135Z AUTO 01005KT 10SM SCT027 18/15 A3003 RMK AO2 T01780150
KSWO 210112Z AUTO 36006KT 10SM BKN028 19/16 A3003 RMK AO2 T01890156
KSWO 210053Z AUTO 36007KT 10SM CLR 20/16 A3003 RMK AO2 SLP160 T02000156
KSWO 202353Z 35008KT 10SM CLR 22/16 A3003 RMK AO2 SLP160 T02170161 10239 20178 56006
KSWO 202300Z 35005KT 10SM OVC030 22/16 A3003 RMK AO2 T02220161
KSWO 202253Z 34006KT 10SM OVC028 22/16 A3004 RMK AO2 SLP161 T02220156